createdAt,value
2023-02-08T00:00:41.973Z,-3.37
2023-02-08T00:03:15.833Z,-3.37
2023-02-08T00:05:48.754Z,-3.40
2023-02-08T00:08:16.116Z,-3.40
2023-02-08T00:10:49.744Z,-3.40
2023-02-08T00:13:16.614Z,-3.44
2023-02-08T00:15:45.279Z,-3.49
2023-02-08T00:18:18.714Z,-3.55
2023-02-08T00:20:45.694Z,-3.56
2023-02-08T00:23:19.811Z,-3.56
2023-02-08T00:25:46.610Z,-3.59
2023-02-08T00:28:21.816Z,-3.63
2023-02-08T00:30:49.074Z,-3.67
2023-02-08T00:33:21.854Z,-3.70
2023-02-08T00:36:02.409Z,-3.70
2023-02-08T00:38:35.767Z,-3.73
2023-02-08T00:41:02.545Z,-3.76
2023-02-08T00:43:35.833Z,-3.80
2023-02-08T00:46:02.483Z,-3.86
2023-02-08T00:48:35.765Z,-3.88
2023-02-08T00:51:13.627Z,-3.89
2023-02-08T00:53:50.798Z,-3.90
2023-02-08T00:56:17.597Z,-3.92
2023-02-08T00:58:44.602Z,-3.85
2023-02-08T01:01:18.841Z,-3.80
2023-02-08T01:03:45.533Z,-3.80
2023-02-08T01:06:23.753Z,-3.72
2023-02-08T01:08:50.279Z,-3.69
2023-02-08T01:11:28.738Z,-3.65
2023-02-08T01:14:05.798Z,-3.62
2023-02-08T01:16:40.826Z,-3.60
2023-02-08T01:19:07.523Z,-3.62
2023-02-08T01:21:43.762Z,-3.65
2023-02-08T01:24:11.300Z,-3.69
2023-02-08T01:26:44.864Z,-3.70
2023-02-08T01:29:11.694Z,-3.66
2023-02-08T01:31:40.639Z,-3.63
2023-02-08T01:34:15.798Z,-3.64
2023-02-08T01:36:48.802Z,-3.61
2023-02-08T01:39:15.337Z,-3.62
2023-02-08T01:41:44.448Z,-3.61
2023-02-08T01:44:20.814Z,-3.65
2023-02-08T01:46:51.167Z,-3.66
2023-02-08T01:49:35.790Z,-3.68
2023-02-08T01:52:08.224Z,-3.70
2023-02-08T01:54:51.764Z,-3.73
2023-02-08T01:57:20.381Z,-3.78
2023-02-08T02:00:07.810Z,-3.82
2023-02-08T02:02:36.961Z,-3.81
2023-02-08T02:05:10.816Z,-3.82
2023-02-08T02:07:38.409Z,-3.82
2023-02-08T02:10:26.833Z,-3.83
2023-02-08T02:12:56.954Z,-3.85
2023-02-08T02:15:30.768Z,-3.87
2023-02-08T02:18:03.755Z,-3.87
2023-02-08T02:21:10.827Z,-3.90
2023-02-08T02:23:56.190Z,-3.97
2023-02-08T02:26:59.779Z,-3.99
2023-02-08T02:29:38.425Z,-3.98
2023-02-08T02:32:32.849Z,-4.02
2023-02-08T02:35:37.839Z,-4.06
2023-02-08T02:38:17.825Z,-4.09
2023-02-08T02:40:53.077Z,-4.10
2023-02-08T02:43:58.777Z,-4.17
2023-02-08T02:46:30.080Z,-4.19
2023-02-08T02:49:15.786Z,-4.23
2023-02-08T02:52:11.409Z,-4.28
2023-02-08T02:54:53.835Z,-4.30
2023-02-08T02:57:27.902Z,-4.28
2023-02-08T03:00:01.824Z,-4.29
2023-02-08T03:02:29.066Z,-4.28
2023-02-08T03:05:03.790Z,-4.26
2023-02-08T03:07:54.941Z,-4.30
2023-02-08T03:10:53.817Z,-4.34
2023-02-08T03:13:39.834Z,-4.38
2023-02-08T03:16:18.170Z,-4.40
2023-02-08T03:19:02.839Z,-4.39
2023-02-08T03:21:52.787Z,-4.40
2023-02-08T03:24:29.249Z,-4.46
2023-02-08T03:27:12.867Z,-4.48
2023-02-08T03:29:54.486Z,-4.46
2023-02-08T03:32:33.886Z,-4.47
2023-02-08T03:35:31.786Z,-4.48
2023-02-08T03:38:13.843Z,-4.47
2023-02-08T03:40:44.513Z,-4.41
2023-02-08T03:43:30.797Z,-4.47
2023-02-08T03:46:08.146Z,-4.48
2023-02-08T03:48:43.858Z,-4.57
2023-02-08T03:51:10.586Z,-4.58
2023-02-08T03:53:40.610Z,-4.61
2023-02-08T03:56:20.889Z,-4.60
2023-02-08T03:59:00.832Z,-4.62
2023-02-08T04:01:32.591Z,-4.66
2023-02-08T04:04:08.038Z,-4.66
2023-02-08T04:06:41.850Z,-4.73
2023-02-08T04:09:14.845Z,-4.73
2023-02-08T04:11:47.848Z,-4.78
2023-02-08T04:14:14.434Z,-4.81
2023-02-08T04:16:47.836Z,-4.74
2023-02-08T04:19:14.467Z,-4.74
2023-02-08T04:21:47.870Z,-4.71
2023-02-08T04:24:14.841Z,-4.73
2023-02-08T04:26:47.837Z,-4.77
2023-02-08T04:29:21.869Z,-4.78
2023-02-08T04:31:54.873Z,-4.84
2023-02-08T04:34:41.859Z,-4.88
2023-02-08T04:37:15.835Z,-4.95
2023-02-08T04:39:42.553Z,-4.98
2023-02-08T04:42:15.871Z,-4.98
2023-02-08T04:44:48.893Z,-5.03
2023-02-08T04:47:15.621Z,-5.06
2023-02-08T04:49:48.822Z,-5.06
2023-02-08T04:52:15.473Z,-5.09
2023-02-08T04:54:48.865Z,-5.11
2023-02-08T04:57:21.923Z,-5.12
2023-02-08T04:59:54.924Z,-5.13
2023-02-08T05:02:21.545Z,-5.12
2023-02-08T05:04:54.947Z,-5.15
2023-02-08T05:07:21.705Z,-5.11
2023-02-08T05:09:54.834Z,-5.11
2023-02-08T05:12:21.424Z,-5.12
2023-02-08T05:14:47.943Z,-5.13
2023-02-08T05:17:20.891Z,-5.07
2023-02-08T05:19:47.632Z,-5.06
2023-02-08T05:22:20.812Z,-5.06
2023-02-08T05:24:47.795Z,-5.03
2023-02-08T05:27:20.834Z,-5.03
2023-02-08T05:29:47.474Z,-5.02
2023-02-08T05:32:14.172Z,-5.01
2023-02-08T05:34:46.875Z,-4.99
2023-02-08T05:37:20.177Z,-4.99
2023-02-08T05:39:53.872Z,-4.98
2023-02-08T05:42:26.905Z,-4.95
2023-02-08T05:44:59.850Z,-4.92
2023-02-08T05:47:32.876Z,-4.90
2023-02-08T05:50:13.074Z,-4.88
2023-02-08T05:52:39.736Z,-4.85
2023-02-08T05:55:13.900Z,-4.84
2023-02-08T05:57:40.455Z,-4.82
2023-02-08T06:00:13.890Z,-4.81
2023-02-08T06:02:40.539Z,-4.81
2023-02-08T06:05:13.872Z,-4.81
2023-02-08T06:07:40.384Z,-4.82
2023-02-08T06:10:13.959Z,-4.82
2023-02-08T06:12:40.480Z,-4.83
2023-02-08T06:15:07.424Z,-4.87
2023-02-08T06:17:40.897Z,-4.91
2023-02-08T06:20:07.942Z,-4.88
2023-02-08T06:22:41.840Z,-4.88
2023-02-08T06:25:08.586Z,-4.88
2023-02-08T06:27:41.840Z,-4.88
2023-02-08T06:30:08.985Z,-4.86
2023-02-08T06:32:41.887Z,-4.86
2023-02-08T06:35:14.948Z,-4.83
2023-02-08T06:37:54.929Z,-4.81
2023-02-08T06:40:21.532Z,-4.83
2023-02-08T06:42:54.907Z,-4.79
2023-02-08T06:45:21.380Z,-4.78
2023-02-08T06:47:54.818Z,-4.75
2023-02-08T06:50:23.983Z,-4.74
2023-02-08T06:52:56.915Z,-4.74
2023-02-08T06:55:29.885Z,-4.70
2023-02-08T06:57:56.556Z,-4.67
2023-02-08T07:00:29.880Z,-4.66
2023-02-08T07:02:56.397Z,-4.67
2023-02-08T07:05:29.846Z,-4.70
2023-02-08T07:07:56.439Z,-4.75
2023-02-08T07:10:29.863Z,-4.70
2023-02-08T07:12:56.494Z,-4.70
2023-02-08T07:15:29.833Z,-4.71
2023-02-08T07:17:56.752Z,-4.70
2023-02-08T07:20:23.539Z,-4.67
2023-02-08T07:22:56.879Z,-4.66
2023-02-08T07:25:29.899Z,-4.62
2023-02-08T07:28:03.005Z,-4.55
2023-02-08T07:30:35.967Z,-4.54
2023-02-08T07:33:02.579Z,-4.48
2023-02-08T07:35:35.879Z,-4.47
2023-02-08T07:38:15.941Z,-4.44
2023-02-08T07:40:48.921Z,-4.41
2023-02-08T07:43:21.887Z,-4.43
2023-02-08T07:45:48.474Z,-4.38
2023-02-08T07:48:15.003Z,-4.35
2023-02-08T07:50:47.846Z,-4.33
2023-02-08T07:53:14.515Z,-4.31
2023-02-08T07:55:47.912Z,-4.31
2023-02-08T07:58:14.564Z,-4.26
2023-02-08T08:00:47.932Z,-4.24
2023-02-08T08:03:20.931Z,-4.22
2023-02-08T08:05:55.029Z,-4.18
2023-02-08T08:08:21.719Z,-4.03
2023-02-08T08:10:55.970Z,-3.93
2023-02-08T08:13:28.967Z,-3.84
2023-02-08T08:15:55.529Z,-3.73
2023-02-08T08:18:28.913Z,-3.65
2023-02-08T08:20:55.427Z,-3.55
2023-02-08T08:23:28.879Z,-3.47
2023-02-08T08:25:55.808Z,-3.36
2023-02-08T08:28:29.012Z,-3.31
2023-02-08T08:30:57.577Z,-3.12
2023-02-08T08:33:30.914Z,-3.02
2023-02-08T08:36:04.502Z,-2.88
2023-02-08T08:38:37.949Z,-2.77
2023-02-08T08:41:17.994Z,-2.45
2023-02-08T08:43:51.921Z,-2.22
2023-02-08T08:46:18.936Z,-2.05
2023-02-08T08:48:52.924Z,-1.84
2023-02-08T08:51:32.897Z,-1.69
2023-02-08T08:54:05.995Z,-1.51
2023-02-08T08:56:32.941Z,-1.27
2023-02-08T08:58:59.997Z,-1.11
2023-02-08T09:01:34.777Z,-0.93
2023-02-08T09:04:01.467Z,-0.74
2023-02-08T09:06:34.936Z,-0.51
2023-02-08T09:09:02.062Z,-0.33
2023-02-08T09:11:34.944Z,-0.19
2023-02-08T09:14:05.696Z,0.08
2023-02-08T09:16:38.892Z,0.47
2023-02-08T09:19:07.411Z,0.87
2023-02-08T09:21:40.939Z,1.20
2023-02-08T09:24:13.942Z,1.50
2023-02-08T09:26:40.472Z,1.70
2023-02-08T09:29:28.908Z,1.98
2023-02-08T09:32:10.490Z,2.21
2023-02-08T09:34:57.884Z,2.48
2023-02-08T09:37:30.931Z,2.91
2023-02-08T09:40:00.256Z,3.46
2023-02-08T09:42:29.782Z,4.11
2023-02-08T09:45:27.926Z,4.84
2023-02-08T09:48:14.712Z,5.60
2023-02-08T09:50:59.920Z,6.55
2023-02-08T09:54:08.965Z,6.96
2023-02-08T09:56:46.947Z,6.70
2023-02-08T09:59:27.975Z,6.66
2023-02-08T10:02:01.558Z,6.91
2023-02-08T10:04:49.987Z,7.03
2023-02-08T10:07:22.932Z,7.16
2023-02-08T10:09:55.983Z,7.15
2023-02-08T10:12:43.950Z,7.14
2023-02-08T10:15:16.066Z,7.14
2023-02-08T10:18:11.948Z,7.54
2023-02-08T10:20:45.126Z,7.80
2023-02-08T10:23:24.025Z,8.29
2023-02-08T10:26:08.971Z,8.53
2023-02-08T10:28:54.966Z,8.50
2023-02-08T10:31:59.008Z,8.82
2023-02-08T10:34:43.939Z,8.93
2023-02-08T10:37:25.996Z,8.95
2023-02-08T10:39:58.963Z,8.99
2023-02-08T10:42:28.852Z,9.01
2023-02-08T10:45:24.191Z,9.13
2023-02-08T10:47:56.800Z,8.77
2023-02-08T10:50:39.960Z,8.54
2023-02-08T10:53:12.979Z,8.45
2023-02-08T10:55:42.781Z,8.37
2023-02-08T10:58:21.953Z,8.24
2023-02-08T11:00:58.024Z,8.34
2023-02-08T11:03:27.391Z,8.65
2023-02-08T11:06:01.013Z,8.81
2023-02-08T11:08:28.893Z,8.77
2023-02-08T11:11:14.019Z,9.05
2023-02-08T11:13:48.254Z,9.25
2023-02-08T11:16:29.990Z,9.41
2023-02-08T11:19:02.207Z,9.37
2023-02-08T11:21:39.954Z,9.42
2023-02-08T11:24:15.565Z,9.47
2023-02-08T11:26:49.966Z,9.37
2023-02-08T11:29:29.258Z,9.31
2023-02-08T11:32:02.169Z,9.13
2023-02-08T11:34:39.300Z,9.06
2023-02-08T11:37:30.014Z,9.04
2023-02-08T11:39:59.227Z,9.03
2023-02-08T11:42:43.050Z,9.20
2023-02-08T11:45:21.151Z,9.56
2023-02-08T11:47:54.974Z,9.63
2023-02-08T11:50:36.983Z,9.66
2023-02-08T11:53:08.325Z,9.70
2023-02-08T11:55:42.210Z,9.77
2023-02-08T11:58:18.061Z,10.05
2023-02-08T12:01:02.453Z,10.09
2023-02-08T12:03:44.042Z,10.14
2023-02-08T12:06:45.079Z,9.95
2023-02-08T12:09:30.948Z,9.60
2023-02-08T12:12:17.739Z,9.50
2023-02-08T12:15:02.986Z,9.84
2023-02-08T12:17:46.858Z,10.00
2023-02-08T12:20:30.036Z,10.31
2023-02-08T12:23:30.748Z,10.53
2023-02-08T12:26:26.062Z,10.39
2023-02-08T12:28:55.646Z,10.39
2023-02-08T12:31:56.078Z,10.61
2023-02-08T12:34:53.165Z,10.77
2023-02-08T12:38:11.086Z,10.76
2023-02-08T12:41:02.048Z,10.69
2023-02-08T12:43:35.008Z,10.86
2023-02-08T12:46:26.074Z,10.88
2023-02-08T12:49:11.137Z,11.01
2023-02-08T12:51:56.860Z,10.77
2023-02-08T12:54:39.006Z,10.77
2023-02-08T12:57:14.060Z,10.92
2023-02-08T12:59:53.029Z,11.00
2023-02-08T13:02:32.032Z,10.79
2023-02-08T13:05:04.527Z,10.71
2023-02-08T13:07:48.064Z,10.70
2023-02-08T13:10:36.069Z,10.69
2023-02-08T13:13:33.035Z,10.87
2023-02-08T13:16:22.773Z,11.01
2023-02-08T13:19:40.588Z,11.21
2023-02-08T13:22:12.656Z,11.34
2023-02-08T13:24:55.266Z,11.55
2023-02-08T13:27:34.122Z,11.75
2023-02-08T13:30:01.396Z,11.98
2023-02-08T13:32:49.024Z,12.02
2023-02-08T13:35:31.168Z,11.93
2023-02-08T13:38:14.068Z,11.77
2023-02-08T13:40:42.145Z,11.76
2023-02-08T13:43:38.314Z,11.69
2023-02-08T13:46:07.101Z,11.61
2023-02-08T13:48:54.098Z,11.58
2023-02-08T13:51:33.025Z,11.54
2023-02-08T13:54:09.362Z,11.33
2023-02-08T13:56:50.263Z,11.16
2023-02-08T13:59:42.026Z,10.82
2023-02-08T14:02:11.461Z,10.63
2023-02-08T14:04:56.097Z,10.49
2023-02-08T14:07:37.441Z,10.39
2023-02-08T14:10:16.158Z,10.36
2023-02-08T14:12:49.348Z,10.29
2023-02-08T14:15:22.066Z,10.24
2023-02-08T14:17:51.166Z,10.31
2023-02-08T14:20:31.075Z,10.24
2023-02-08T14:23:08.125Z,9.94
2023-02-08T14:25:51.058Z,9.58
2023-02-08T14:28:34.082Z,9.38
2023-02-08T14:31:12.223Z,9.37
2023-02-08T14:33:49.075Z,9.51
2023-02-08T14:36:30.576Z,9.77
2023-02-08T14:39:33.055Z,9.73
2023-02-08T14:42:03.948Z,9.54
2023-02-08T14:44:48.066Z,9.36
2023-02-08T14:47:26.968Z,9.05
2023-02-08T14:50:23.064Z,8.67
2023-02-08T14:52:57.954Z,8.42
2023-02-08T14:55:34.060Z,8.15
2023-02-08T14:58:09.113Z,7.85
2023-02-08T15:00:45.118Z,7.58
2023-02-08T15:03:16.364Z,7.36
2023-02-08T15:06:25.085Z,7.15
2023-02-08T15:09:02.111Z,6.93
2023-02-08T15:11:39.074Z,6.69
2023-02-08T15:14:13.141Z,6.59
2023-02-08T15:16:44.176Z,6.44
2023-02-08T15:19:33.132Z,6.32
2023-02-08T15:22:31.170Z,6.30
2023-02-08T15:25:27.070Z,6.22
2023-02-08T15:27:59.836Z,6.12
2023-02-08T15:30:45.421Z,6.04
2023-02-08T15:33:19.747Z,5.97
2023-02-08T15:36:09.074Z,5.93
2023-02-08T15:38:38.798Z,5.82
2023-02-08T15:41:21.114Z,5.78
2023-02-08T15:43:47.634Z,5.75
2023-02-08T15:46:30.118Z,5.84
2023-02-08T15:48:57.525Z,5.84
2023-02-08T15:51:31.190Z,5.87
2023-02-08T15:54:04.122Z,5.86
2023-02-08T15:56:38.015Z,5.82
2023-02-08T15:59:21.109Z,5.69
2023-02-08T16:01:48.079Z,5.68
2023-02-08T16:04:21.101Z,5.64
2023-02-08T16:06:52.169Z,5.56
2023-02-08T16:09:35.104Z,5.43
2023-02-08T16:12:01.763Z,5.38
2023-02-08T16:14:51.679Z,5.25
2023-02-08T16:17:36.451Z,5.22
2023-02-08T16:20:34.369Z,5.14
2023-02-08T16:23:34.657Z,4.98
2023-02-08T16:26:26.483Z,4.79
2023-02-08T16:29:04.408Z,4.64
2023-02-08T16:31:39.198Z,4.49
2023-02-08T16:34:20.118Z,4.33
2023-02-08T16:36:57.155Z,4.14
2023-02-08T16:39:43.128Z,3.96
2023-02-08T16:42:31.090Z,3.81
2023-02-08T16:45:13.134Z,3.66
2023-02-08T16:47:54.118Z,3.53
2023-02-08T16:50:25.678Z,3.39
2023-02-08T16:53:07.182Z,3.23
2023-02-08T16:55:43.184Z,6.09
2023-02-08T16:58:23.610Z,14.18
2023-02-08T17:00:51.519Z,19.36
2023-02-08T17:03:25.366Z,23.23
2023-02-08T17:05:59.130Z,25.88
2023-02-08T17:08:26.606Z,27.87
2023-02-08T17:11:05.203Z,29.38
2023-02-08T17:13:31.863Z,29.60
2023-02-08T17:16:07.233Z,24.15
2023-02-08T17:18:35.065Z,16.76
2023-02-08T17:21:09.135Z,19.56
2023-02-08T17:23:42.208Z,23.34
2023-02-08T17:26:39.241Z,27.04
2023-02-08T17:29:06.373Z,29.24
2023-02-08T17:31:39.178Z,30.32
2023-02-08T17:34:05.864Z,31.07
2023-02-08T17:36:46.183Z,31.96
2023-02-08T17:39:12.919Z,32.16
2023-02-08T17:41:47.160Z,31.51
2023-02-08T17:44:15.213Z,30.18
2023-02-08T17:46:49.164Z,28.41
2023-02-08T17:49:16.372Z,28.53
2023-02-08T17:51:49.201Z,29.36
2023-02-08T17:54:22.166Z,29.45
2023-02-08T17:56:48.749Z,29.21
2023-02-08T17:59:22.156Z,29.11
2023-02-08T18:01:48.812Z,28.86
2023-02-08T18:04:22.133Z,29.03
2023-02-08T18:06:48.724Z,28.65
2023-02-08T18:09:22.209Z,27.88
2023-02-08T18:11:48.922Z,27.62
2023-02-08T18:14:22.185Z,28.00
2023-02-08T18:16:55.164Z,28.27
2023-02-08T18:19:22.503Z,28.33
2023-02-08T18:21:55.172Z,28.48
2023-02-08T18:24:21.748Z,29.44
2023-02-08T18:26:55.235Z,29.20
2023-02-08T18:29:21.860Z,27.81
2023-02-08T18:31:55.509Z,26.96
2023-02-08T18:34:28.227Z,27.71
2023-02-08T18:37:08.146Z,26.78
2023-02-08T18:39:34.942Z,27.53
2023-02-08T18:42:08.233Z,27.47
2023-02-08T18:44:43.152Z,27.66
2023-02-08T18:47:10.848Z,27.81
2023-02-08T18:49:47.210Z,26.43
2023-02-08T18:52:16.017Z,26.78
2023-02-08T18:54:49.166Z,27.28
2023-02-08T18:57:16.017Z,27.10
2023-02-08T18:59:49.230Z,27.02
2023-02-08T19:02:21.231Z,26.90
2023-02-08T19:04:55.214Z,25.01
2023-02-08T19:07:22.024Z,24.67
2023-02-08T19:09:56.207Z,25.12
2023-02-08T19:12:29.250Z,26.41
2023-02-08T19:14:56.019Z,26.97
2023-02-08T19:17:29.204Z,25.66
2023-02-08T19:20:02.263Z,24.61
2023-02-08T19:22:35.248Z,24.41
2023-02-08T19:25:01.937Z,24.85
2023-02-08T19:27:36.203Z,25.00
2023-02-08T19:30:11.234Z,24.35
2023-02-08T19:32:44.165Z,23.77
2023-02-08T19:35:17.238Z,23.65
2023-02-08T19:37:58.197Z,23.76
2023-02-08T19:40:31.251Z,24.92
2023-02-08T19:42:57.894Z,25.61
2023-02-08T19:45:31.266Z,25.72
2023-02-08T19:47:57.942Z,25.38
2023-02-08T19:50:31.226Z,25.47
2023-02-08T19:52:57.809Z,25.57
2023-02-08T19:55:31.189Z,25.82
2023-02-08T19:57:57.694Z,26.15
2023-02-08T20:00:32.186Z,26.25
2023-02-08T20:02:58.779Z,26.16
2023-02-08T20:05:25.361Z,26.26
2023-02-08T20:07:58.319Z,25.86
2023-02-08T20:10:31.250Z,25.73
2023-02-08T20:12:57.917Z,25.25
2023-02-08T20:15:31.277Z,25.15
2023-02-08T20:18:02.211Z,25.26
2023-02-08T20:20:36.227Z,25.00
2023-02-08T20:23:20.866Z,24.74
2023-02-08T20:25:49.256Z,23.85
2023-02-08T20:28:22.339Z,22.69
2023-02-08T20:30:49.022Z,22.10
2023-02-08T20:33:22.194Z,22.09
2023-02-08T20:35:55.274Z,22.01
2023-02-08T20:38:28.222Z,21.71
2023-02-08T20:41:02.204Z,21.46
2023-02-08T20:43:35.235Z,21.61
2023-02-08T20:46:06.552Z,22.45
2023-02-08T20:48:40.218Z,23.46
2023-02-08T20:51:09.100Z,23.96
2023-02-08T20:53:44.242Z,24.37
2023-02-08T20:56:22.211Z,24.37
2023-02-08T20:58:49.391Z,24.47
2023-02-08T21:01:26.258Z,24.52
2023-02-08T21:04:01.236Z,24.38
2023-02-08T21:06:37.263Z,24.03
2023-02-08T21:09:08.693Z,23.86
2023-02-08T21:11:42.305Z,23.89
2023-02-08T21:14:13.696Z,22.74
2023-02-08T21:16:47.397Z,22.54
2023-02-08T21:19:15.514Z,22.37
2023-02-08T21:21:49.251Z,22.09
2023-02-08T21:24:22.211Z,20.67
2023-02-08T21:26:48.828Z,20.32
2023-02-08T21:29:22.222Z,20.61
2023-02-08T21:31:58.308Z,21.18
2023-02-08T21:34:25.036Z,21.91
2023-02-08T21:37:05.316Z,21.82
2023-02-08T21:39:47.262Z,20.63
2023-02-08T21:42:20.212Z,19.92
2023-02-08T21:44:46.791Z,18.89
2023-02-08T21:47:20.224Z,17.87
2023-02-08T21:50:12.282Z,18.33
2023-02-08T21:52:57.534Z,16.78
2023-02-08T21:55:30.247Z,16.56
2023-02-08T21:57:56.848Z,15.57
2023-02-08T22:00:30.327Z,15.47
2023-02-08T22:02:56.874Z,14.87
2023-02-08T22:05:30.223Z,14.93
2023-02-08T22:07:59.409Z,14.01
2023-02-08T22:10:36.293Z,13.36
2023-02-08T22:13:02.904Z,13.05
2023-02-08T22:15:37.340Z,12.34
2023-02-08T22:18:04.322Z,12.60
2023-02-08T22:20:38.304Z,12.35
2023-02-08T22:23:06.029Z,12.06
2023-02-08T22:25:39.265Z,12.11
2023-02-08T22:28:13.396Z,12.02
2023-02-08T22:30:40.322Z,11.51
2023-02-08T22:33:13.228Z,11.76
2023-02-08T22:35:46.427Z,13.30
2023-02-08T22:38:26.274Z,14.23
2023-02-08T22:40:52.936Z,12.95
2023-02-08T22:43:19.567Z,11.79
2023-02-08T22:46:02.292Z,8.83
2023-02-08T22:48:36.305Z,4.51
2023-02-08T22:51:12.613Z,2.59
2023-02-08T22:53:45.333Z,1.90
2023-02-08T22:56:14.966Z,1.52
2023-02-08T22:58:48.307Z,1.34
2023-02-08T23:01:17.028Z,1.21
2023-02-08T23:03:43.855Z,1.13
2023-02-08T23:06:21.307Z,1.10
2023-02-08T23:08:48.339Z,1.11
2023-02-08T23:11:22.373Z,1.00
2023-02-08T23:13:48.938Z,0.97
2023-02-08T23:16:24.308Z,0.89
2023-02-08T23:18:51.355Z,0.83
2023-02-08T23:21:26.358Z,0.79
2023-02-08T23:23:52.980Z,0.74
2023-02-08T23:26:20.966Z,0.72
2023-02-08T23:28:57.340Z,0.73
2023-02-08T23:31:30.406Z,0.74
2023-02-08T23:34:05.381Z,0.81
2023-02-08T23:36:45.294Z,0.85
2023-02-08T23:39:18.588Z,0.88
2023-02-08T23:41:51.344Z,0.87
2023-02-08T23:44:24.242Z,0.90
2023-02-08T23:46:50.835Z,0.92
2023-02-08T23:49:24.268Z,1.00
2023-02-08T23:51:53.269Z,0.99
2023-02-08T23:54:26.339Z,0.96
2023-02-08T23:56:53.163Z,0.99
2023-02-08T23:59:26.274Z,0.95
